sensor_id;sensor_type;location;lat;lon;timestamp;P1;durP1;ratioP1;P2;durP2;ratioP2
77581;SDS011;66726;52.388;9.986;2023-12-28T00:01:24;5.13;;;2.50;;
77581;SDS011;66726;52.388;9.986;2023-12-28T00:03:53;3.67;;;2.40;;
77581;SDS011;66726;52.388;9.986;2023-12-28T00:06:21;3.40;;;2.23;;
77581;SDS011;66726;52.388;9.986;2023-12-28T00:08:49;3.73;;;2.53;;
77581;SDS011;66726;52.388;9.986;2023-12-28T00:11:29;3.87;;;2.43;;
77581;SDS011;66726;52.388;9.986;2023-12-28T00:13:58;5.17;;;2.37;;
77581;SDS011;66726;52.388;9.986;2023-12-28T00:16:26;2.80;;;2.10;;
77581;SDS011;66726;52.388;9.986;2023-12-28T00:18:54;3.43;;;2.20;;
77581;SDS011;66726;52.388;9.986;2023-12-28T00:21:24;3.13;;;1.97;;
77581;SDS011;66726;52.388;9.986;2023-12-28T00:23:52;2.97;;;2.00;;
77581;SDS011;66726;52.388;9.986;2023-12-28T00:26:20;4.77;;;2.27;;
77581;SDS011;66726;52.388;9.986;2023-12-28T00:28:48;3.60;;;2.17;;
77581;SDS011;66726;52.388;9.986;2023-12-28T00:31:17;3.63;;;2.00;;
77581;SDS011;66726;52.388;9.986;2023-12-28T00:33:45;3.07;;;2.13;;
77581;SDS011;66726;52.388;9.986;2023-12-28T00:36:13;6.30;;;2.23;;
77581;SDS011;66726;52.388;9.986;2023-12-28T00:38:43;2.60;;;2.30;;
77581;SDS011;66726;52.388;9.986;2023-12-28T00:41:12;6.33;;;2.80;;
77581;SDS011;66726;52.388;9.986;2023-12-28T00:43:40;4.10;;;2.10;;
77581;SDS011;66726;52.388;9.986;2023-12-28T00:46:08;4.27;;;2.27;;
77581;SDS011;66726;52.388;9.986;2023-12-28T00:48:37;4.03;;;2.13;;
77581;SDS011;66726;52.388;9.986;2023-12-28T00:51:05;4.37;;;2.23;;
77581;SDS011;66726;52.388;9.986;2023-12-28T00:53:33;2.97;;;2.20;;
77581;SDS011;66726;52.388;9.986;2023-12-28T00:56:03;3.30;;;1.90;;
77581;SDS011;66726;52.388;9.986;2023-12-28T00:58:32;6.80;;;2.53;;
77581;SDS011;66726;52.388;9.986;2023-12-28T01:01:00;4.47;;;2.27;;
77581;SDS011;66726;52.388;9.986;2023-12-28T01:03:28;3.73;;;1.93;;
77581;SDS011;66726;52.388;9.986;2023-12-28T01:05:57;4.63;;;2.20;;
77581;SDS011;66726;52.388;9.986;2023-12-28T01:08:25;3.73;;;2.10;;
77581;SDS011;66726;52.388;9.986;2023-12-28T01:10:53;4.43;;;2.30;;
77581;SDS011;66726;52.388;9.986;2023-12-28T01:13:23;4.07;;;2.10;;
77581;SDS011;66726;52.388;9.986;2023-12-28T01:15:51;3.10;;;2.20;;
77581;SDS011;66726;52.388;9.986;2023-12-28T01:18:19;4.37;;;2.13;;
77581;SDS011;66726;52.388;9.986;2023-12-28T01:20:48;4.93;;;2.30;;
77581;SDS011;66726;52.388;9.986;2023-12-28T01:23:16;4.87;;;2.40;;
77581;SDS011;66726;52.388;9.986;2023-12-28T01:25:44;5.57;;;2.50;;
77581;SDS011;66726;52.388;9.986;2023-12-28T01:28:12;4.17;;;2.33;;
77581;SDS011;66726;52.388;9.986;2023-12-28T01:30:42;5.73;;;2.20;;
77581;SDS011;66726;52.388;9.986;2023-12-28T01:33:10;3.57;;;2.57;;
77581;SDS011;66726;52.388;9.986;2023-12-28T01:35:39;2.93;;;2.40;;
77581;SDS011;66726;52.388;9.986;2023-12-28T01:38:08;4.53;;;2.53;;
77581;SDS011;66726;52.388;9.986;2023-12-28T01:40:36;3.00;;;2.10;;
77581;SDS011;66726;52.388;9.986;2023-12-28T01:43:04;4.80;;;2.47;;
77581;SDS011;66726;52.388;9.986;2023-12-28T01:45:32;3.27;;;2.30;;
77581;SDS011;66726;52.388;9.986;2023-12-28T01:48:02;2.93;;;2.30;;
77581;SDS011;66726;52.388;9.986;2023-12-28T01:50:31;4.07;;;2.57;;
77581;SDS011;66726;52.388;9.986;2023-12-28T01:53:00;5.13;;;2.20;;
77581;SDS011;66726;52.388;9.986;2023-12-28T01:55:30;3.43;;;1.93;;
77581;SDS011;66726;52.388;9.986;2023-12-28T01:58:01;5.47;;;2.37;;
77581;SDS011;66726;52.388;9.986;2023-12-28T02:00:29;3.53;;;2.67;;
77581;SDS011;66726;52.388;9.986;2023-12-28T02:02:58;4.60;;;2.23;;
77581;SDS011;66726;52.388;9.986;2023-12-28T02:05:28;3.20;;;2.20;;
77581;SDS011;66726;52.388;9.986;2023-12-28T02:07:57;3.97;;;2.37;;
77581;SDS011;66726;52.388;9.986;2023-12-28T02:10:26;5.63;;;2.43;;
77581;SDS011;66726;52.388;9.986;2023-12-28T02:12:54;4.10;;;2.37;;
77581;SDS011;66726;52.388;9.986;2023-12-28T02:15:23;4.03;;;2.43;;
77581;SDS011;66726;52.388;9.986;2023-12-28T02:17:53;4.10;;;2.30;;
77581;SDS011;66726;52.388;9.986;2023-12-28T02:20:30;5.67;;;2.40;;
77581;SDS011;66726;52.388;9.986;2023-12-28T02:23:00;7.73;;;2.40;;
77581;SDS011;66726;52.388;9.986;2023-12-28T02:25:31;2.77;;;2.20;;
77581;SDS011;66726;52.388;9.986;2023-12-28T02:28:00;3.47;;;2.30;;
77581;SDS011;66726;52.388;9.986;2023-12-28T02:30:28;3.57;;;2.50;;
77581;SDS011;66726;52.388;9.986;2023-12-28T02:33:01;2.83;;;2.40;;
77581;SDS011;66726;52.388;9.986;2023-12-28T02:35:44;4.77;;;2.47;;
77581;SDS011;66726;52.388;9.986;2023-12-28T02:38:19;4.43;;;2.50;;
77581;SDS011;66726;52.388;9.986;2023-12-28T02:40:52;2.50;;;2.30;;
77581;SDS011;66726;52.388;9.986;2023-12-28T02:43:22;5.17;;;2.20;;
77581;SDS011;66726;52.388;9.986;2023-12-28T02:45:50;5.07;;;2.53;;
77581;SDS011;66726;52.388;9.986;2023-12-28T02:48:18;4.00;;;2.40;;
77581;SDS011;66726;52.388;9.986;2023-12-28T02:50:47;5.07;;;2.80;;
77581;SDS011;66726;52.388;9.986;2023-12-28T02:53:15;3.37;;;2.50;;
77581;SDS011;66726;52.388;9.986;2023-12-28T02:55:43;5.33;;;2.67;;
77581;SDS011;66726;52.388;9.986;2023-12-28T02:58:13;4.27;;;2.60;;
77581;SDS011;66726;52.388;9.986;2023-12-28T03:00:41;3.00;;;2.30;;
77581;SDS011;66726;52.388;9.986;2023-12-28T03:03:09;3.70;;;2.40;;
77581;SDS011;66726;52.388;9.986;2023-12-28T03:05:37;3.80;;;2.63;;
77581;SDS011;66726;52.388;9.986;2023-12-28T03:08:05;3.53;;;2.80;;
77581;SDS011;66726;52.388;9.986;2023-12-28T03:10:34;4.33;;;3.00;;
77581;SDS011;66726;52.388;9.986;2023-12-28T03:13:02;4.13;;;2.50;;
77581;SDS011;66726;52.388;9.986;2023-12-28T03:15:32;7.67;;;3.23;;
77581;SDS011;66726;52.388;9.986;2023-12-28T03:18:00;5.27;;;3.00;;
77581;SDS011;66726;52.388;9.986;2023-12-28T03:20:30;4.97;;;3.27;;
77581;SDS011;66726;52.388;9.986;2023-12-28T03:22:58;4.27;;;2.87;;
77581;SDS011;66726;52.388;9.986;2023-12-28T03:25:26;7.20;;;3.60;;
77581;SDS011;66726;52.388;9.986;2023-12-28T03:27:54;5.03;;;2.83;;
77581;SDS011;66726;52.388;9.986;2023-12-28T03:30:22;5.77;;;2.60;;
77581;SDS011;66726;52.388;9.986;2023-12-28T03:32:52;3.47;;;3.00;;
77581;SDS011;66726;52.388;9.986;2023-12-28T03:35:20;4.47;;;2.77;;
77581;SDS011;66726;52.388;9.986;2023-12-28T03:37:48;4.63;;;2.77;;
77581;SDS011;66726;52.388;9.986;2023-12-28T03:40:16;5.03;;;2.90;;
77581;SDS011;66726;52.388;9.986;2023-12-28T03:42:45;4.70;;;2.73;;
77581;SDS011;66726;52.388;9.986;2023-12-28T03:45:14;4.67;;;2.80;;
77581;SDS011;66726;52.388;9.986;2023-12-28T03:47:42;4.43;;;2.63;;
77581;SDS011;66726;52.388;9.986;2023-12-28T03:50:12;3.50;;;2.50;;
77581;SDS011;66726;52.388;9.986;2023-12-28T03:52:40;4.83;;;2.70;;
77581;SDS011;66726;52.388;9.986;2023-12-28T03:55:08;4.43;;;2.60;;
77581;SDS011;66726;52.388;9.986;2023-12-28T03:57:37;6.00;;;2.40;;
77581;SDS011;66726;52.388;9.986;2023-12-28T04:00:06;4.13;;;2.97;;
77581;SDS011;66726;52.388;9.986;2023-12-28T04:02:35;3.47;;;2.83;;
77581;SDS011;66726;52.388;9.986;2023-12-28T04:05:04;3.77;;;2.47;;
77581;SDS011;66726;52.388;9.986;2023-12-28T04:07:34;4.33;;;2.67;;
77581;SDS011;66726;52.388;9.986;2023-12-28T04:10:03;3.13;;;2.60;;
77581;SDS011;66726;52.388;9.986;2023-12-28T04:12:32;5.27;;;2.80;;
77581;SDS011;66726;52.388;9.986;2023-12-28T04:15:00;4.73;;;2.80;;
77581;SDS011;66726;52.388;9.986;2023-12-28T04:17:28;3.47;;;2.50;;
77581;SDS011;66726;52.388;9.986;2023-12-28T04:19:57;3.90;;;2.60;;
77581;SDS011;66726;52.388;9.986;2023-12-28T04:22:25;3.83;;;2.73;;
77581;SDS011;66726;52.388;9.986;2023-12-28T04:24:54;3.83;;;2.70;;
77581;SDS011;66726;52.388;9.986;2023-12-28T04:27:22;4.10;;;2.57;;
77581;SDS011;66726;52.388;9.986;2023-12-28T04:29:50;4.93;;;2.70;;
77581;SDS011;66726;52.388;9.986;2023-12-28T04:32:19;3.03;;;2.43;;
77581;SDS011;66726;52.388;9.986;2023-12-28T04:34:47;4.57;;;2.90;;
77581;SDS011;66726;52.388;9.986;2023-12-28T04:37:15;6.20;;;3.00;;
77581;SDS011;66726;52.388;9.986;2023-12-28T04:39:43;3.93;;;2.30;;
77581;SDS011;66726;52.388;9.986;2023-12-28T04:42:13;3.27;;;2.50;;
77581;SDS011;66726;52.388;9.986;2023-12-28T04:44:41;4.17;;;2.43;;
77581;SDS011;66726;52.388;9.986;2023-12-28T04:47:09;3.73;;;2.77;;
77581;SDS011;66726;52.388;9.986;2023-12-28T04:49:37;3.70;;;2.60;;
77581;SDS011;66726;52.388;9.986;2023-12-28T04:52:06;5.80;;;3.13;;
77581;SDS011;66726;52.388;9.986;2023-12-28T04:54:34;2.73;;;2.20;;
77581;SDS011;66726;52.388;9.986;2023-12-28T04:57:02;3.50;;;2.40;;
77581;SDS011;66726;52.388;9.986;2023-12-28T04:59:32;6.23;;;2.90;;
77581;SDS011;66726;52.388;9.986;2023-12-28T05:02:00;4.03;;;2.50;;
77581;SDS011;66726;52.388;9.986;2023-12-28T05:04:29;4.50;;;2.47;;
77581;SDS011;66726;52.388;9.986;2023-12-28T05:06:57;4.53;;;2.20;;
77581;SDS011;66726;52.388;9.986;2023-12-28T05:09:25;3.07;;;2.43;;
77581;SDS011;66726;52.388;9.986;2023-12-28T05:11:53;2.93;;;2.30;;
77581;SDS011;66726;52.388;9.986;2023-12-28T05:14:21;6.47;;;2.87;;
77581;SDS011;66726;52.388;9.986;2023-12-28T05:16:51;4.00;;;2.47;;
77581;SDS011;66726;52.388;9.986;2023-12-28T05:19:19;4.40;;;2.57;;
77581;SDS011;66726;52.388;9.986;2023-12-28T05:21:47;3.57;;;2.30;;
77581;SDS011;66726;52.388;9.986;2023-12-28T05:24:16;4.80;;;2.30;;
77581;SDS011;66726;52.388;9.986;2023-12-28T05:26:44;4.27;;;2.40;;
77581;SDS011;66726;52.388;9.986;2023-12-28T05:29:12;5.37;;;2.60;;
77581;SDS011;66726;52.388;9.986;2023-12-28T05:31:40;3.90;;;2.30;;
77581;SDS011;66726;52.388;9.986;2023-12-28T05:34:10;3.90;;;2.60;;
77581;SDS011;66726;52.388;9.986;2023-12-28T05:36:38;4.53;;;2.70;;
77581;SDS011;66726;52.388;9.986;2023-12-28T05:39:07;4.27;;;2.30;;
77581;SDS011;66726;52.388;9.986;2023-12-28T05:41:38;5.77;;;2.50;;
77581;SDS011;66726;52.388;9.986;2023-12-28T05:44:06;4.23;;;2.17;;
77581;SDS011;66726;52.388;9.986;2023-12-28T05:46:34;8.23;;;2.63;;
77581;SDS011;66726;52.388;9.986;2023-12-28T05:49:02;6.53;;;2.63;;
77581;SDS011;66726;52.388;9.986;2023-12-28T05:51:38;4.13;;;2.40;;
77581;SDS011;66726;52.388;9.986;2023-12-28T05:54:07;4.40;;;2.43;;
77581;SDS011;66726;52.388;9.986;2023-12-28T05:56:36;5.23;;;2.40;;
77581;SDS011;66726;52.388;9.986;2023-12-28T05:59:04;4.07;;;2.40;;
77581;SDS011;66726;52.388;9.986;2023-12-28T06:01:32;4.30;;;2.30;;
77581;SDS011;66726;52.388;9.986;2023-12-28T06:04:10;3.50;;;2.10;;
77581;SDS011;66726;52.388;9.986;2023-12-28T06:06:40;4.00;;;2.20;;
77581;SDS011;66726;52.388;9.986;2023-12-28T06:09:08;5.60;;;2.57;;
77581;SDS011;66726;52.388;9.986;2023-12-28T06:11:37;3.27;;;2.20;;
77581;SDS011;66726;52.388;9.986;2023-12-28T06:14:06;3.93;;;2.00;;
77581;SDS011;66726;52.388;9.986;2023-12-28T06:16:35;6.80;;;2.27;;
77581;SDS011;66726;52.388;9.986;2023-12-28T06:19:03;4.97;;;2.17;;
77581;SDS011;66726;52.388;9.986;2023-12-28T06:21:32;3.10;;;1.97;;
77581;SDS011;66726;52.388;9.986;2023-12-28T06:24:02;3.20;;;2.40;;
77581;SDS011;66726;52.388;9.986;2023-12-28T06:26:30;4.57;;;2.10;;
77581;SDS011;66726;52.388;9.986;2023-12-28T06:28:58;5.27;;;2.60;;
77581;SDS011;66726;52.388;9.986;2023-12-28T06:31:27;3.60;;;2.10;;
77581;SDS011;66726;52.388;9.986;2023-12-28T06:33:55;2.87;;;2.17;;
77581;SDS011;66726;52.388;9.986;2023-12-28T06:36:23;3.73;;;2.33;;
77581;SDS011;66726;52.388;9.986;2023-12-28T06:38:51;4.40;;;1.90;;
77581;SDS011;66726;52.388;9.986;2023-12-28T06:41:21;5.43;;;2.20;;
77581;SDS011;66726;52.388;9.986;2023-12-28T06:43:49;3.40;;;2.03;;
77581;SDS011;66726;52.388;9.986;2023-12-28T06:46:17;4.73;;;2.10;;
77581;SDS011;66726;52.388;9.986;2023-12-28T06:48:46;4.90;;;2.27;;
77581;SDS011;66726;52.388;9.986;2023-12-28T06:51:18;3.37;;;1.93;;
77581;SDS011;66726;52.388;9.986;2023-12-28T06:53:48;4.23;;;1.90;;
77581;SDS011;66726;52.388;9.986;2023-12-28T06:56:16;4.07;;;1.93;;
77581;SDS011;66726;52.388;9.986;2023-12-28T06:58:46;4.53;;;2.00;;
77581;SDS011;66726;52.388;9.986;2023-12-28T07:01:14;6.33;;;2.27;;
77581;SDS011;66726;52.388;9.986;2023-12-28T07:03:42;2.77;;;1.87;;
77581;SDS011;66726;52.388;9.986;2023-12-28T07:06:11;6.27;;;2.00;;
77581;SDS011;66726;52.388;9.986;2023-12-28T07:08:41;3.83;;;2.00;;
77581;SDS011;66726;52.388;9.986;2023-12-28T07:11:09;5.97;;;2.07;;
77581;SDS011;66726;52.388;9.986;2023-12-28T07:13:38;5.13;;;2.20;;
77581;SDS011;66726;52.388;9.986;2023-12-28T07:16:07;4.33;;;1.77;;
77581;SDS011;66726;52.388;9.986;2023-12-28T07:18:35;4.23;;;1.90;;
77581;SDS011;66726;52.388;9.986;2023-12-28T07:21:04;4.23;;;2.00;;
77581;SDS011;66726;52.388;9.986;2023-12-28T07:23:35;4.10;;;2.00;;
77581;SDS011;66726;52.388;9.986;2023-12-28T07:26:04;5.50;;;2.13;;
77581;SDS011;66726;52.388;9.986;2023-12-28T07:28:32;3.00;;;1.80;;
77581;SDS011;66726;52.388;9.986;2023-12-28T07:31:00;3.57;;;2.00;;
77581;SDS011;66726;52.388;9.986;2023-12-28T07:33:30;4.57;;;1.90;;
77581;SDS011;66726;52.388;9.986;2023-12-28T07:35:58;4.23;;;2.20;;
77581;SDS011;66726;52.388;9.986;2023-12-28T07:38:28;6.30;;;2.20;;
77581;SDS011;66726;52.388;9.986;2023-12-28T07:40:57;3.50;;;1.70;;
77581;SDS011;66726;52.388;9.986;2023-12-28T07:43:25;4.70;;;2.07;;
77581;SDS011;66726;52.388;9.986;2023-12-28T07:45:54;3.53;;;2.03;;
77581;SDS011;66726;52.388;9.986;2023-12-28T07:48:22;2.97;;;1.80;;
77581;SDS011;66726;52.388;9.986;2023-12-28T07:50:52;3.80;;;1.90;;
77581;SDS011;66726;52.388;9.986;2023-12-28T07:53:20;5.40;;;2.30;;
77581;SDS011;66726;52.388;9.986;2023-12-28T07:55:48;5.30;;;2.20;;
77581;SDS011;66726;52.388;9.986;2023-12-28T07:58:17;6.00;;;2.13;;
77581;SDS011;66726;52.388;9.986;2023-12-28T08:00:45;5.97;;;2.73;;
77581;SDS011;66726;52.388;9.986;2023-12-28T08:03:14;5.17;;;1.73;;
77581;SDS011;66726;52.388;9.986;2023-12-28T08:05:43;3.77;;;1.90;;
77581;SDS011;66726;52.388;9.986;2023-12-28T08:08:12;4.50;;;2.03;;
77581;SDS011;66726;52.388;9.986;2023-12-28T08:10:41;4.10;;;2.20;;
77581;SDS011;66726;52.388;9.986;2023-12-28T08:13:09;7.77;;;2.03;;
77581;SDS011;66726;52.388;9.986;2023-12-28T08:15:38;2.73;;;1.60;;
77581;SDS011;66726;52.388;9.986;2023-12-28T08:18:06;4.60;;;1.83;;
77581;SDS011;66726;52.388;9.986;2023-12-28T08:20:35;3.77;;;2.17;;
77581;SDS011;66726;52.388;9.986;2023-12-28T08:23:03;3.60;;;1.87;;
77581;SDS011;66726;52.388;9.986;2023-12-28T08:25:45;4.80;;;2.20;;
77581;SDS011;66726;52.388;9.986;2023-12-28T08:28:13;4.27;;;2.00;;
77581;SDS011;66726;52.388;9.986;2023-12-28T08:30:43;2.87;;;1.90;;
77581;SDS011;66726;52.388;9.986;2023-12-28T08:33:12;4.13;;;2.00;;
77581;SDS011;66726;52.388;9.986;2023-12-28T08:35:40;4.17;;;2.00;;
77581;SDS011;66726;52.388;9.986;2023-12-28T08:38:08;3.40;;;1.73;;
77581;SDS011;66726;52.388;9.986;2023-12-28T08:40:37;4.73;;;2.30;;
77581;SDS011;66726;52.388;9.986;2023-12-28T08:43:06;5.47;;;2.50;;
77581;SDS011;66726;52.388;9.986;2023-12-28T08:45:35;4.10;;;1.90;;
77581;SDS011;66726;52.388;9.986;2023-12-28T08:48:03;5.00;;;2.13;;
77581;SDS011;66726;52.388;9.986;2023-12-28T08:50:32;4.60;;;1.80;;
77581;SDS011;66726;52.388;9.986;2023-12-28T08:53:01;3.90;;;2.00;;
77581;SDS011;66726;52.388;9.986;2023-12-28T08:55:29;3.27;;;1.90;;
77581;SDS011;66726;52.388;9.986;2023-12-28T08:57:59;3.13;;;2.10;;
77581;SDS011;66726;52.388;9.986;2023-12-28T09:00:30;4.20;;;1.80;;
77581;SDS011;66726;52.388;9.986;2023-12-28T09:02:58;5.17;;;2.50;;
77581;SDS011;66726;52.388;9.986;2023-12-28T09:05:27;4.77;;;1.87;;
77581;SDS011;66726;52.388;9.986;2023-12-28T09:07:56;4.20;;;1.90;;
77581;SDS011;66726;52.388;9.986;2023-12-28T09:10:27;4.47;;;2.03;;
77581;SDS011;66726;52.388;9.986;2023-12-28T09:12:56;3.90;;;1.77;;
77581;SDS011;66726;52.388;9.986;2023-12-28T09:15:33;4.83;;;2.27;;
77581;SDS011;66726;52.388;9.986;2023-12-28T09:18:02;3.20;;;1.70;;
77581;SDS011;66726;52.388;9.986;2023-12-28T09:20:31;7.93;;;2.20;;
77581;SDS011;66726;52.388;9.986;2023-12-28T09:23:01;5.03;;;2.03;;
77581;SDS011;66726;52.388;9.986;2023-12-28T09:25:29;5.27;;;1.80;;
77581;SDS011;66726;52.388;9.986;2023-12-28T09:27:58;3.30;;;1.60;;
77581;SDS011;66726;52.388;9.986;2023-12-28T09:30:26;3.57;;;1.70;;
77581;SDS011;66726;52.388;9.986;2023-12-28T09:32:58;3.53;;;2.07;;
77581;SDS011;66726;52.388;9.986;2023-12-28T09:35:26;6.30;;;2.10;;
77581;SDS011;66726;52.388;9.986;2023-12-28T09:37:54;5.10;;;2.07;;
77581;SDS011;66726;52.388;9.986;2023-12-28T09:40:23;6.57;;;2.20;;
77581;SDS011;66726;52.388;9.986;2023-12-28T09:42:53;4.17;;;2.07;;
77581;SDS011;66726;52.388;9.986;2023-12-28T09:45:33;3.90;;;2.03;;
77581;SDS011;66726;52.388;9.986;2023-12-28T09:48:03;4.70;;;2.30;;
77581;SDS011;66726;52.388;9.986;2023-12-28T09:50:33;5.43;;;2.00;;
77581;SDS011;66726;52.388;9.986;2023-12-28T09:53:01;4.43;;;2.23;;
77581;SDS011;66726;52.388;9.986;2023-12-28T09:55:30;3.87;;;1.80;;
77581;SDS011;66726;52.388;9.986;2023-12-28T09:57:58;4.03;;;1.80;;
77581;SDS011;66726;52.388;9.986;2023-12-28T10:00:31;4.27;;;2.13;;
77581;SDS011;66726;52.388;9.986;2023-12-28T10:03:00;11.13;;;2.33;;
77581;SDS011;66726;52.388;9.986;2023-12-28T10:05:30;7.50;;;2.37;;
77581;SDS011;66726;52.388;9.986;2023-12-28T10:07:58;6.70;;;2.03;;
77581;SDS011;66726;52.388;9.986;2023-12-28T10:10:26;6.83;;;2.23;;
77581;SDS011;66726;52.388;9.986;2023-12-28T10:12:57;4.80;;;2.17;;
77581;SDS011;66726;52.388;9.986;2023-12-28T10:15:26;6.63;;;2.10;;
77581;SDS011;66726;52.388;9.986;2023-12-28T10:17:54;5.53;;;2.00;;
77581;SDS011;66726;52.388;9.986;2023-12-28T10:20:25;4.43;;;2.10;;
77581;SDS011;66726;52.388;9.986;2023-12-28T10:22:54;6.37;;;2.10;;
77581;SDS011;66726;52.388;9.986;2023-12-28T10:25:23;6.03;;;2.40;;
77581;SDS011;66726;52.388;9.986;2023-12-28T10:27:52;6.93;;;2.23;;
77581;SDS011;66726;52.388;9.986;2023-12-28T10:30:21;6.23;;;2.57;;
77581;SDS011;66726;52.388;9.986;2023-12-28T10:32:50;8.33;;;2.30;;
77581;SDS011;66726;52.388;9.986;2023-12-28T10:35:19;4.77;;;2.20;;
77581;SDS011;66726;52.388;9.986;2023-12-28T10:37:49;7.20;;;2.90;;
77581;SDS011;66726;52.388;9.986;2023-12-28T10:40:20;7.33;;;2.53;;
77581;SDS011;66726;52.388;9.986;2023-12-28T10:42:50;6.53;;;2.60;;
77581;SDS011;66726;52.388;9.986;2023-12-28T10:45:23;5.07;;;2.53;;
77581;SDS011;66726;52.388;9.986;2023-12-28T10:47:54;6.50;;;2.30;;
77581;SDS011;66726;52.388;9.986;2023-12-28T10:50:34;5.17;;;2.30;;
77581;SDS011;66726;52.388;9.986;2023-12-28T10:53:11;5.33;;;2.23;;
77581;SDS011;66726;52.388;9.986;2023-12-28T10:56:00;7.47;;;2.37;;
77581;SDS011;66726;52.388;9.986;2023-12-28T10:58:47;9.73;;;2.77;;
77581;SDS011;66726;52.388;9.986;2023-12-28T11:01:20;8.30;;;2.23;;
77581;SDS011;66726;52.388;9.986;2023-12-28T11:03:58;8.73;;;2.20;;
77581;SDS011;66726;52.388;9.986;2023-12-28T11:06:35;7.33;;;2.43;;
77581;SDS011;66726;52.388;9.986;2023-12-28T11:09:06;6.03;;;2.30;;
77581;SDS011;66726;52.388;9.986;2023-12-28T11:11:37;8.33;;;2.40;;
77581;SDS011;66726;52.388;9.986;2023-12-28T11:14:07;8.50;;;2.50;;
77581;SDS011;66726;52.388;9.986;2023-12-28T11:16:36;8.47;;;2.33;;
77581;SDS011;66726;52.388;9.986;2023-12-28T11:19:07;5.93;;;2.43;;
77581;SDS011;66726;52.388;9.986;2023-12-28T11:21:37;10.73;;;2.40;;
77581;SDS011;66726;52.388;9.986;2023-12-28T11:24:08;11.10;;;2.70;;
77581;SDS011;66726;52.388;9.986;2023-12-28T11:26:37;8.10;;;2.23;;
77581;SDS011;66726;52.388;9.986;2023-12-28T11:29:05;10.83;;;2.80;;
77581;SDS011;66726;52.388;9.986;2023-12-28T11:31:34;9.10;;;2.30;;
77581;SDS011;66726;52.388;9.986;2023-12-28T11:34:03;5.77;;;2.27;;
77581;SDS011;66726;52.388;9.986;2023-12-28T11:36:40;8.37;;;2.63;;
77581;SDS011;66726;52.388;9.986;2023-12-28T11:39:20;7.47;;;2.23;;
77581;SDS011;66726;52.388;9.986;2023-12-28T11:42:00;10.37;;;2.60;;
77581;SDS011;66726;52.388;9.986;2023-12-28T11:44:30;9.77;;;2.70;;
77581;SDS011;66726;52.388;9.986;2023-12-28T11:46:59;6.27;;;2.13;;
77581;SDS011;66726;52.388;9.986;2023-12-28T11:49:38;10.00;;;2.40;;
77581;SDS011;66726;52.388;9.986;2023-12-28T11:52:08;7.83;;;2.47;;
77581;SDS011;66726;52.388;9.986;2023-12-28T11:54:39;7.67;;;2.77;;
77581;SDS011;66726;52.388;9.986;2023-12-28T11:57:16;8.20;;;2.83;;
77581;SDS011;66726;52.388;9.986;2023-12-28T11:59:44;10.80;;;3.00;;
77581;SDS011;66726;52.388;9.986;2023-12-28T12:02:13;9.40;;;2.80;;
77581;SDS011;66726;52.388;9.986;2023-12-28T12:04:41;5.53;;;2.43;;
77581;SDS011;66726;52.388;9.986;2023-12-28T12:07:11;9.13;;;2.57;;
77581;SDS011;66726;52.388;9.986;2023-12-28T12:09:41;8.50;;;2.73;;
77581;SDS011;66726;52.388;9.986;2023-12-28T12:12:09;7.17;;;2.70;;
77581;SDS011;66726;52.388;9.986;2023-12-28T12:14:37;8.53;;;2.83;;
77581;SDS011;66726;52.388;9.986;2023-12-28T12:17:06;8.27;;;2.47;;
77581;SDS011;66726;52.388;9.986;2023-12-28T12:19:35;13.93;;;3.33;;
77581;SDS011;66726;52.388;9.986;2023-12-28T12:22:03;8.40;;;2.53;;
77581;SDS011;66726;52.388;9.986;2023-12-28T12:24:31;7.60;;;2.63;;
77581;SDS011;66726;52.388;9.986;2023-12-28T12:27:02;9.60;;;2.90;;
77581;SDS011;66726;52.388;9.986;2023-12-28T12:29:31;12.23;;;2.93;;
77581;SDS011;66726;52.388;9.986;2023-12-28T12:31:59;11.60;;;3.00;;
77581;SDS011;66726;52.388;9.986;2023-12-28T12:34:30;7.30;;;2.33;;
77581;SDS011;66726;52.388;9.986;2023-12-28T12:36:58;9.97;;;2.47;;
77581;SDS011;66726;52.388;9.986;2023-12-28T12:39:27;7.10;;;2.50;;
77581;SDS011;66726;52.388;9.986;2023-12-28T12:41:58;10.33;;;2.47;;
77581;SDS011;66726;52.388;9.986;2023-12-28T12:44:28;10.10;;;2.43;;
77581;SDS011;66726;52.388;9.986;2023-12-28T12:46:57;10.33;;;2.50;;
77581;SDS011;66726;52.388;9.986;2023-12-28T12:49:26;7.17;;;2.43;;
77581;SDS011;66726;52.388;9.986;2023-12-28T12:51:54;9.47;;;3.17;;
77581;SDS011;66726;52.388;9.986;2023-12-28T12:54:25;10.13;;;2.50;;
77581;SDS011;66726;52.388;9.986;2023-12-28T12:56:54;9.73;;;2.60;;
77581;SDS011;66726;52.388;9.986;2023-12-28T12:59:23;9.87;;;2.97;;
77581;SDS011;66726;52.388;9.986;2023-12-28T13:01:53;12.70;;;2.93;;
77581;SDS011;66726;52.388;9.986;2023-12-28T13:04:21;9.73;;;3.00;;
77581;SDS011;66726;52.388;9.986;2023-12-28T13:06:50;11.13;;;3.00;;
77581;SDS011;66726;52.388;9.986;2023-12-28T13:09:18;7.07;;;3.03;;
77581;SDS011;66726;52.388;9.986;2023-12-28T13:11:47;6.27;;;2.80;;
77581;SDS011;66726;52.388;9.986;2023-12-28T13:14:16;6.30;;;2.63;;
77581;SDS011;66726;52.388;9.986;2023-12-28T13:16:45;12.03;;;3.00;;
77581;SDS011;66726;52.388;9.986;2023-12-28T13:19:16;8.70;;;2.83;;
77581;SDS011;66726;52.388;9.986;2023-12-28T13:21:44;7.83;;;2.80;;
77581;SDS011;66726;52.388;9.986;2023-12-28T13:24:12;12.10;;;3.03;;
77581;SDS011;66726;52.388;9.986;2023-12-28T13:26:40;6.90;;;2.50;;
77581;SDS011;66726;52.388;9.986;2023-12-28T13:29:08;10.07;;;2.43;;
77581;SDS011;66726;52.388;9.986;2023-12-28T13:31:36;8.07;;;2.90;;
77581;SDS011;66726;52.388;9.986;2023-12-28T13:34:06;9.93;;;2.93;;
77581;SDS011;66726;52.388;9.986;2023-12-28T13:36:35;9.73;;;2.80;;
77581;SDS011;66726;52.388;9.986;2023-12-28T13:39:03;5.90;;;2.30;;
77581;SDS011;66726;52.388;9.986;2023-12-28T13:41:32;7.63;;;2.20;;
77581;SDS011;66726;52.388;9.986;2023-12-28T13:44:01;8.20;;;2.70;;
77581;SDS011;66726;52.388;9.986;2023-12-28T13:46:30;10.33;;;2.73;;
77581;SDS011;66726;52.388;9.986;2023-12-28T13:48:59;8.20;;;2.60;;
77581;SDS011;66726;52.388;9.986;2023-12-28T13:51:28;6.17;;;2.43;;
77581;SDS011;66726;52.388;9.986;2023-12-28T13:53:58;7.70;;;2.40;;
77581;SDS011;66726;52.388;9.986;2023-12-28T13:56:28;5.23;;;2.17;;
77581;SDS011;66726;52.388;9.986;2023-12-28T13:58:56;7.20;;;2.70;;
77581;SDS011;66726;52.388;9.986;2023-12-28T14:01:24;6.43;;;2.70;;
77581;SDS011;66726;52.388;9.986;2023-12-28T14:03:53;9.80;;;2.40;;
77581;SDS011;66726;52.388;9.986;2023-12-28T14:06:21;6.30;;;2.40;;
77581;SDS011;66726;52.388;9.986;2023-12-28T14:08:50;9.87;;;2.67;;
77581;SDS011;66726;52.388;9.986;2023-12-28T14:11:19;7.77;;;2.23;;
77581;SDS011;66726;52.388;9.986;2023-12-28T14:13:47;10.63;;;2.67;;
77581;SDS011;66726;52.388;9.986;2023-12-28T14:16:15;8.27;;;2.20;;
77581;SDS011;66726;52.388;9.986;2023-12-28T14:18:44;8.77;;;2.63;;
77581;SDS011;66726;52.388;9.986;2023-12-28T14:21:13;8.23;;;2.00;;
77581;SDS011;66726;52.388;9.986;2023-12-28T14:23:42;10.03;;;3.10;;
77581;SDS011;66726;52.388;9.986;2023-12-28T14:26:11;9.93;;;2.37;;
77581;SDS011;66726;52.388;9.986;2023-12-28T14:28:43;10.77;;;2.53;;
77581;SDS011;66726;52.388;9.986;2023-12-28T14:31:12;8.30;;;2.70;;
77581;SDS011;66726;52.388;9.986;2023-12-28T14:33:42;5.80;;;2.10;;
77581;SDS011;66726;52.388;9.986;2023-12-28T14:36:12;8.53;;;2.80;;
77581;SDS011;66726;52.388;9.986;2023-12-28T14:38:53;8.20;;;2.50;;
77581;SDS011;66726;52.388;9.986;2023-12-28T14:41:21;9.77;;;2.53;;
77581;SDS011;66726;52.388;9.986;2023-12-28T14:43:51;7.90;;;2.07;;
77581;SDS011;66726;52.388;9.986;2023-12-28T14:46:19;8.17;;;2.40;;
77581;SDS011;66726;52.388;9.986;2023-12-28T14:48:48;7.17;;;2.20;;
77581;SDS011;66726;52.388;9.986;2023-12-28T14:51:16;4.93;;;1.83;;
77581;SDS011;66726;52.388;9.986;2023-12-28T14:53:44;8.37;;;2.13;;
77581;SDS011;66726;52.388;9.986;2023-12-28T14:56:12;5.30;;;2.00;;
77581;SDS011;66726;52.388;9.986;2023-12-28T14:58:41;10.27;;;2.33;;
77581;SDS011;66726;52.388;9.986;2023-12-28T15:01:14;7.87;;;2.27;;